カシュガル の空港の天気 - METARとTAF

カシュガル空港 ( ZWSH / KHG ) - 中国 新疆ウイグル自治区カシュガル市
飛行場実況気象(Metar)
観測時間08/07 05:00 CST (08/06 21:00 UTC)
風向・風速北北西 2m/s
視程10km以上
天気現象
少しの雲 雲底高度 1220m
気温25℃
湿度26%
気圧1012hPa
METARZWSH 062100Z 34002MPS 9999 FEW040 25/04 Q1012 NOSIG
過去の天気等 Google飛行場航空写真 Wunderground天気予報

過去48時間のMETAR

飛行場予報(TAF)
発表時間: 8/06 23:04 CST (8/06 15:04 UTC)
予報対象時間: 7日2時 CST ~ 8日2時 CST
風向・風速北北西 4m/s
視程10km以上
少しの積乱雲 雲底高度 1220m
7日11時 CST ~ 7日12時 CST に徐々に
風向・風速東南東 5m/s
TAF ZWSH 061504Z 0618/0718 33004MPS 9999 FEW040CB TX36/0709Z TN24/0700Z
BECMG 0703/0704 11005MPS